sensor_id;sensor_type;location;lat;lon;timestamp;temperature;humidity
55026;DHT22;40925;45.666;18.994;2023-07-29T00:00:43;538.40;2048.00
55026;DHT22;40925;45.666;18.994;2023-07-29T00:03:09;538.40;2406.40
55026;DHT22;40925;45.666;18.994;2023-07-29T00:05:36;538.40;2406.40
55026;DHT22;40925;45.666;18.994;2023-07-29T00:08:02;538.50;2406.40
55026;DHT22;40925;45.666;18.994;2023-07-29T00:10:28;538.50;2406.40
55026;DHT22;40925;45.666;18.994;2023-07-29T00:12:54;538.50;2406.40
55026;DHT22;40925;45.666;18.994;2023-07-29T00:15:20;538.50;2406.40
55026;DHT22;40925;45.666;18.994;2023-07-29T00:17:46;563.20;2432.00
55026;DHT22;40925;45.666;18.994;2023-07-29T00:20:11;538.30;2406.40
55026;DHT22;40925;45.666;18.994;2023-07-29T00:22:37;538.00;2406.40
55026;DHT22;40925;45.666;18.994;2023-07-29T00:25:03;537.70;2406.40
55026;DHT22;40925;45.666;18.994;2023-07-29T00:27:29;537.60;2406.40
55026;DHT22;40925;45.666;18.994;2023-07-29T00:29:55;512.80;2380.80
55026;DHT22;40925;45.666;18.994;2023-07-29T00:32:21;512.70;2380.80
55026;DHT22;40925;45.666;18.994;2023-07-29T00:34:46;512.50;2380.80
55026;DHT22;40925;45.666;18.994;2023-07-29T00:37:12;512.50;2380.80
55026;DHT22;40925;45.666;18.994;2023-07-29T00:39:38;512.20;2380.80
55026;DHT22;40925;45.666;18.994;2023-07-29T00:42:04;512.40;2380.80
55026;DHT22;40925;45.666;18.994;2023-07-29T00:44:30;512.50;2380.80
55026;DHT22;40925;45.666;18.994;2023-07-29T00:46:57;512.40;2380.80
55026;DHT22;40925;45.666;18.994;2023-07-29T00:49:24;512.30;2380.80
55026;DHT22;40925;45.666;18.994;2023-07-29T00:51:50;512.20;2380.80
55026;DHT22;40925;45.666;18.994;2023-07-29T00:54:15;512.10;2380.80
55026;DHT22;40925;45.666;18.994;2023-07-29T00:56:42;487.30;2380.80
55026;DHT22;40925;45.666;18.994;2023-07-29T00:59:08;487.00;2380.80
55026;DHT22;40925;45.666;18.994;2023-07-29T01:01:34;487.20;2380.80
55026;DHT22;40925;45.666;18.994;2023-07-29T01:04:00;487.10;2380.80
55026;DHT22;40925;45.666;18.994;2023-07-29T01:06:50;487.10;2380.80
55026;DHT22;40925;45.666;18.994;2023-07-29T01:12:13;486.90;2380.80
55026;DHT22;40925;45.666;18.994;2023-07-29T01:14:51;486.90;2380.80
55026;DHT22;40925;45.666;18.994;2023-07-29T01:17:31;486.90;2380.80
55026;DHT22;40925;45.666;18.994;2023-07-29T01:20:07;486.90;2380.80
55026;DHT22;40925;45.666;18.994;2023-07-29T01:22:35;486.90;2380.80
55026;DHT22;40925;45.666;18.994;2023-07-29T01:25:01;486.90;2380.80
55026;DHT22;40925;45.666;18.994;2023-07-29T01:27:27;487.00;2380.80
55026;DHT22;40925;45.666;18.994;2023-07-29T01:29:53;487.00;2380.80
55026;DHT22;40925;45.666;18.994;2023-07-29T01:32:34;487.10;2380.80
55026;DHT22;40925;45.666;18.994;2023-07-29T01:35:27;487.20;2380.80
55026;DHT22;40925;45.666;18.994;2023-07-29T01:38:24;487.30;2380.80
55026;DHT22;40925;45.666;18.994;2023-07-29T01:40:50;487.30;2380.80
55026;DHT22;40925;45.666;18.994;2023-07-29T01:43:16;487.20;2380.80
55026;DHT22;40925;45.666;18.994;2023-07-29T01:45:44;487.20;2380.80
55026;DHT22;40925;45.666;18.994;2023-07-29T01:48:10;487.20;2380.80
55026;DHT22;40925;45.666;18.994;2023-07-29T01:50:36;487.20;2380.80
55026;DHT22;40925;45.666;18.994;2023-07-29T01:53:01;487.20;2380.80
55026;DHT22;40925;45.666;18.994;2023-07-29T01:55:27;512.00;2380.80
55026;DHT22;40925;45.666;18.994;2023-07-29T01:57:53;512.10;2380.80
55026;DHT22;40925;45.666;18.994;2023-07-29T02:00:19;512.20;2380.80
55026;DHT22;40925;45.666;18.994;2023-07-29T02:02:45;512.20;2380.80
55026;DHT22;40925;45.666;18.994;2023-07-29T02:05:11;512.20;2380.80
55026;DHT22;40925;45.666;18.994;2023-07-29T02:07:36;512.20;2380.80
55026;DHT22;40925;45.666;18.994;2023-07-29T02:10:02;512.30;2380.80
55026;DHT22;40925;45.666;18.994;2023-07-29T02:12:28;512.40;2329.60
55026;DHT22;40925;45.666;18.994;2023-07-29T02:14:54;512.40;2355.20
55026;DHT22;40925;45.666;18.994;2023-07-29T02:17:19;512.50;2380.80
55026;DHT22;40925;45.666;18.994;2023-07-29T02:19:46;512.50;2380.80
55026;DHT22;40925;45.666;18.994;2023-07-29T02:22:16;512.50;2380.80
55026;DHT22;40925;45.666;18.994;2023-07-29T02:24:42;512.60;2380.80
55026;DHT22;40925;45.666;18.994;2023-07-29T02:27:08;512.50;2380.80
55026;DHT22;40925;45.666;18.994;2023-07-29T02:29:34;512.60;2380.80
55026;DHT22;40925;45.666;18.994;2023-07-29T02:32:00;512.60;2380.80
55026;DHT22;40925;45.666;18.994;2023-07-29T02:34:26;512.60;2380.80
55026;DHT22;40925;45.666;18.994;2023-07-29T02:36:51;512.60;2380.80
55026;DHT22;40925;45.666;18.994;2023-07-29T02:39:17;512.60;2380.80
55026;DHT22;40925;45.666;18.994;2023-07-29T02:41:43;512.50;2380.80
55026;DHT22;40925;45.666;18.994;2023-07-29T02:44:09;512.30;2380.80
55026;DHT22;40925;45.666;18.994;2023-07-29T02:46:37;512.00;2380.80
55026;DHT22;40925;45.666;18.994;2023-07-29T02:49:03;487.30;2124.80
55026;DHT22;40925;45.666;18.994;2023-07-29T02:51:32;487.20;2355.20
55026;DHT22;40925;45.666;18.994;2023-07-29T02:53:58;487.20;2278.40
55026;DHT22;40925;45.666;18.994;2023-07-29T02:56:24;487.20;2380.80
55026;DHT22;40925;45.666;18.994;2023-07-29T02:58:50;487.20;2227.20
55026;DHT22;40925;45.666;18.994;2023-07-29T03:01:18;487.30;2380.80
55026;DHT22;40925;45.666;18.994;2023-07-29T03:03:44;512.00;2380.80
55026;DHT22;40925;45.666;18.994;2023-07-29T03:06:13;487.30;1996.80
55026;DHT22;40925;45.666;18.994;2023-07-29T03:08:39;487.30;2380.80
55026;DHT22;40925;45.666;18.994;2023-07-29T03:11:13;487.20;2380.80
55026;DHT22;40925;45.666;18.994;2023-07-29T03:13:39;487.20;2380.80
55026;DHT22;40925;45.666;18.994;2023-07-29T03:16:13;487.20;2380.80
55026;DHT22;40925;45.666;18.994;2023-07-29T03:18:40;487.30;2380.80
55026;DHT22;40925;45.666;18.994;2023-07-29T03:21:06;487.20;2380.80
55026;DHT22;40925;45.666;18.994;2023-07-29T03:23:33;487.20;2380.80
55026;DHT22;40925;45.666;18.994;2023-07-29T03:26:01;487.20;2380.80
55026;DHT22;40925;45.666;18.994;2023-07-29T03:28:33;487.20;2380.80
55026;DHT22;40925;45.666;18.994;2023-07-29T03:30:59;487.10;2380.80
55026;DHT22;40925;45.666;18.994;2023-07-29T03:33:25;487.10;2380.80
55026;DHT22;40925;45.666;18.994;2023-07-29T03:35:51;487.20;2380.80
55026;DHT22;40925;45.666;18.994;2023-07-29T03:38:17;487.20;2380.80
55026;DHT22;40925;45.666;18.994;2023-07-29T03:40:43;487.20;2380.80
55026;DHT22;40925;45.666;18.994;2023-07-29T03:43:09;487.20;2380.80
55026;DHT22;40925;45.666;18.994;2023-07-29T03:45:35;487.10;2380.80
55026;DHT22;40925;45.666;18.994;2023-07-29T03:48:02;487.00;2380.80
55026;DHT22;40925;45.666;18.994;2023-07-29T03:50:29;487.00;2380.80
55026;DHT22;40925;45.666;18.994;2023-07-29T03:52:55;487.10;2380.80
55026;DHT22;40925;45.666;18.994;2023-07-29T03:55:21;487.20;2380.80
55026;DHT22;40925;45.666;18.994;2023-07-29T03:57:47;487.20;2380.80
55026;DHT22;40925;45.666;18.994;2023-07-29T04:00:12;487.30;2380.80
55026;DHT22;40925;45.666;18.994;2023-07-29T04:02:38;512.00;2380.80
55026;DHT22;40925;45.666;18.994;2023-07-29T04:05:05;512.10;2380.80
55026;DHT22;40925;45.666;18.994;2023-07-29T04:07:31;512.10;2380.80
55026;DHT22;40925;45.666;18.994;2023-07-29T04:09:57;512.10;2380.80
55026;DHT22;40925;45.666;18.994;2023-07-29T04:12:24;512.20;2380.80
55026;DHT22;40925;45.666;18.994;2023-07-29T04:14:50;512.20;2380.80
55026;DHT22;40925;45.666;18.994;2023-07-29T04:17:15;487.30;2380.80
55026;DHT22;40925;45.666;18.994;2023-07-29T04:19:41;487.20;2380.80
55026;DHT22;40925;45.666;18.994;2023-07-29T04:22:07;487.20;2380.80
55026;DHT22;40925;45.666;18.994;2023-07-29T04:24:33;487.20;2380.80
55026;DHT22;40925;45.666;18.994;2023-07-29T04:26:58;487.20;2380.80
55026;DHT22;40925;45.666;18.994;2023-07-29T04:29:24;487.30;2380.80
55026;DHT22;40925;45.666;18.994;2023-07-29T04:31:50;487.30;2380.80
55026;DHT22;40925;45.666;18.994;2023-07-29T04:34:19;512.10;2380.80
55026;DHT22;40925;45.666;18.994;2023-07-29T04:36:46;512.30;2380.80
55026;DHT22;40925;45.666;18.994;2023-07-29T04:39:12;512.40;2380.80
55026;DHT22;40925;45.666;18.994;2023-07-29T04:41:38;512.60;2380.80
55026;DHT22;40925;45.666;18.994;2023-07-29T04:44:04;512.90;2380.80
55026;DHT22;40925;45.666;18.994;2023-07-29T04:46:30;537.70;2406.40
55026;DHT22;40925;45.666;18.994;2023-07-29T04:48:55;537.80;2406.40
55026;DHT22;40925;45.666;18.994;2023-07-29T04:51:22;538.10;2406.40
55026;DHT22;40925;45.666;18.994;2023-07-29T04:53:47;538.20;2406.40
55026;DHT22;40925;45.666;18.994;2023-07-29T04:56:13;563.20;2432.00
55026;DHT22;40925;45.666;18.994;2023-07-29T04:58:39;538.50;2406.40
55026;DHT22;40925;45.666;18.994;2023-07-29T05:15:44;564.10;2432.00
55026;DHT22;40925;45.666;18.994;2023-07-29T05:18:11;564.00;2432.00
55026;DHT22;40925;45.666;18.994;2023-07-29T05:20:37;564.00;2432.00
55026;DHT22;40925;45.666;18.994;2023-07-29T05:23:02;564.00;2432.00
55026;DHT22;40925;45.666;18.994;2023-07-29T05:25:28;563.90;2432.00
55026;DHT22;40925;45.666;18.994;2023-07-29T05:27:54;563.90;2432.00
55026;DHT22;40925;45.666;18.994;2023-07-29T05:30:20;563.90;2432.00
55026;DHT22;40925;45.666;18.994;2023-07-29T05:32:46;564.10;2432.00
55026;DHT22;40925;45.666;18.994;2023-07-29T05:35:12;564.00;2432.00
55026;DHT22;40925;45.666;18.994;2023-07-29T05:37:41;564.00;2432.00
55026;DHT22;40925;45.666;18.994;2023-07-29T05:40:08;564.10;2432.00
55026;DHT22;40925;45.666;18.994;2023-07-29T05:42:36;588.80;2432.00
55026;DHT22;40925;45.666;18.994;2023-07-29T05:45:02;589.00;2432.00
55026;DHT22;40925;45.666;18.994;2023-07-29T05:47:28;589.20;2432.00
55026;DHT22;40925;45.666;18.994;2023-07-29T05:49:53;589.30;2432.00
55026;DHT22;40925;45.666;18.994;2023-07-29T05:52:19;589.50;2432.00
55026;DHT22;40925;45.666;18.994;2023-07-29T05:54:45;614.50;2432.00
55026;DHT22;40925;45.666;18.994;2023-07-29T05:57:12;614.40;2432.00
55026;DHT22;40925;45.666;18.994;2023-07-29T05:59:38;614.40;2432.00
55026;DHT22;40925;45.666;18.994;2023-07-29T06:21:34;615.00;2432.00
55026;DHT22;40925;45.666;18.994;2023-07-29T06:24:00;614.80;2432.00
55026;DHT22;40925;45.666;18.994;2023-07-29T06:43:30;640.30;2432.00
55026;DHT22;40925;45.666;18.994;2023-07-29T06:45:55;640.30;2432.00
55026;DHT22;40925;45.666;18.994;2023-07-29T06:48:21;640.30;2432.00
55026;DHT22;40925;45.666;18.994;2023-07-29T06:50:47;640.40;2432.00
55026;DHT22;40925;45.666;18.994;2023-07-29T06:53:13;640.30;2432.00
55026;DHT22;40925;45.666;18.994;2023-07-29T06:55:38;640.30;2432.00
55026;DHT22;40925;45.666;18.994;2023-07-29T06:58:04;640.40;2432.00
55026;DHT22;40925;45.666;18.994;2023-07-29T07:00:30;640.50;2432.00
55026;DHT22;40925;45.666;18.994;2023-07-29T07:12:40;665.60;2432.00
55026;DHT22;40925;45.666;18.994;2023-07-29T07:15:06;640.90;2432.00
55026;DHT22;40925;45.666;18.994;2023-07-29T07:17:32;666.00;2432.00
55026;DHT22;40925;45.666;18.994;2023-07-29T07:22:24;666.20;2432.00
55026;DHT22;40925;45.666;18.994;2023-07-29T09:52:18;793.90;1817.60
55026;DHT22;40925;45.666;18.994;2023-07-29T09:54:45;793.60;1843.20
55026;DHT22;40925;45.666;18.994;2023-07-29T09:59:40;794.40;1817.60
55026;DHT22;40925;45.666;18.994;2023-07-29T10:02:13;794.10;1817.60
55026;DHT22;40925;45.666;18.994;2023-07-29T10:04:43;794.10;1817.60
55026;DHT22;40925;45.666;18.994;2023-07-29T10:09:37;794.50;1766.40
55026;DHT22;40925;45.666;18.994;2023-07-29T10:29:23;794.50;1638.40
55026;DHT22;40925;45.666;18.994;2023-07-29T10:31:52;794.40;1689.60
55026;DHT22;40925;45.666;18.994;2023-07-29T10:36:49;820.00;1587.20
55026;DHT22;40925;45.666;18.994;2023-07-29T10:47:34;819.60;1536.00
55026;DHT22;40925;45.666;18.994;2023-07-29T10:50:17;819.50;1536.00
55026;DHT22;40925;45.666;18.994;2023-07-29T10:52:43;819.70;1510.40
55026;DHT22;40925;45.666;18.994;2023-07-29T11:07:49;845.20;1484.80
55026;DHT22;40925;45.666;18.994;2023-07-29T11:18:00;845.30;1587.20
55026;DHT22;40925;45.666;18.994;2023-07-29T11:20:33;845.30;1536.00
55026;DHT22;40925;45.666;18.994;2023-07-29T11:23:03;845.70;1536.00
55026;DHT22;40925;45.666;18.994;2023-07-29T11:35:20;845.50;1484.80
55026;DHT22;40925;45.666;18.994;2023-07-29T11:54:58;819.50;1510.40
55026;DHT22;40925;45.666;18.994;2023-07-29T11:57:24;819.40;1536.00
55026;DHT22;40925;45.666;18.994;2023-07-29T11:59:50;819.40;1587.20
55026;DHT22;40925;45.666;18.994;2023-07-29T12:02:17;819.60;1561.60
55026;DHT22;40925;45.666;18.994;2023-07-29T12:09:39;819.40;1536.00
55026;DHT22;40925;45.666;18.994;2023-07-29T12:12:06;819.40;1561.60
55026;DHT22;40925;45.666;18.994;2023-07-29T12:17:06;820.10;1536.00
55026;DHT22;40925;45.666;18.994;2023-07-29T12:19:36;819.60;1510.40
55026;DHT22;40925;45.666;18.994;2023-07-29T12:22:03;820.10;1510.40
55026;DHT22;40925;45.666;18.994;2023-07-29T12:24:30;845.20;1510.40
55026;DHT22;40925;45.666;18.994;2023-07-29T12:29:22;845.50;1459.20
55026;DHT22;40925;45.666;18.994;2023-07-29T12:31:49;845.50;1459.20
55026;DHT22;40925;45.666;18.994;2023-07-29T12:34:24;845.10;1536.00
55026;DHT22;40925;45.666;18.994;2023-07-29T12:36:54;845.00;1459.20
55026;DHT22;40925;45.666;18.994;2023-07-29T12:39:32;845.00;1484.80
55026;DHT22;40925;45.666;18.994;2023-07-29T12:41:59;820.00;1484.80
55026;DHT22;40925;45.666;18.994;2023-07-29T12:44:33;844.80;1510.40
55026;DHT22;40925;45.666;18.994;2023-07-29T12:47:01;844.80;1510.40
55026;DHT22;40925;45.666;18.994;2023-07-29T12:54:26;870.60;1433.60
55026;DHT22;40925;45.666;18.994;2023-07-29T12:56:52;870.50;1433.60
55026;DHT22;40925;45.666;18.994;2023-07-29T12:59:18;845.60;1433.60
55026;DHT22;40925;45.666;18.994;2023-07-29T13:01:44;845.10;1484.80
55026;DHT22;40925;45.666;18.994;2023-07-29T13:04:10;844.80;1510.40
55026;DHT22;40925;45.666;18.994;2023-07-29T13:06:36;845.10;1510.40
55026;DHT22;40925;45.666;18.994;2023-07-29T13:09:02;844.80;1561.60
55026;DHT22;40925;45.666;18.994;2023-07-29T13:11:28;845.20;1510.40
55026;DHT22;40925;45.666;18.994;2023-07-29T13:13:57;845.10;1484.80
55026;DHT22;40925;45.666;18.994;2023-07-29T13:16:23;844.90;1510.40
55026;DHT22;40925;45.666;18.994;2023-07-29T13:18:50;844.80;1484.80
55026;DHT22;40925;45.666;18.994;2023-07-29T13:21:16;844.80;1459.20
55026;DHT22;40925;45.666;18.994;2023-07-29T13:23:42;845.10;1459.20
55026;DHT22;40925;45.666;18.994;2023-07-29T13:26:11;819.70;1484.80
55026;DHT22;40925;45.666;18.994;2023-07-29T13:28:37;820.10;1484.80
55026;DHT22;40925;45.666;18.994;2023-07-29T13:31:03;845.10;1510.40
55026;DHT22;40925;45.666;18.994;2023-07-29T13:33:29;820.10;1484.80
55026;DHT22;40925;45.666;18.994;2023-07-29T13:36:02;844.80;1536.00
55026;DHT22;40925;45.666;18.994;2023-07-29T13:38:29;845.30;1484.80
55026;DHT22;40925;45.666;18.994;2023-07-29T13:40:54;845.30;1484.80
55026;DHT22;40925;45.666;18.994;2023-07-29T13:43:20;845.10;1510.40
55026;DHT22;40925;45.666;18.994;2023-07-29T13:45:46;845.10;1510.40
55026;DHT22;40925;45.666;18.994;2023-07-29T13:48:14;845.00;1536.00
55026;DHT22;40925;45.666;18.994;2023-07-29T13:50:40;845.00;1536.00
55026;DHT22;40925;45.666;18.994;2023-07-29T13:53:06;845.10;1510.40
55026;DHT22;40925;45.666;18.994;2023-07-29T13:55:32;845.60;1536.00
55026;DHT22;40925;45.666;18.994;2023-07-29T13:57:58;845.30;1510.40
55026;DHT22;40925;45.666;18.994;2023-07-29T14:00:23;845.10;1536.00
55026;DHT22;40925;45.666;18.994;2023-07-29T14:02:49;845.00;1510.40
55026;DHT22;40925;45.666;18.994;2023-07-29T14:05:15;844.80;1510.40
55026;DHT22;40925;45.666;18.994;2023-07-29T14:07:40;819.80;1484.80
55026;DHT22;40925;45.666;18.994;2023-07-29T14:10:09;819.70;1510.40
55026;DHT22;40925;45.666;18.994;2023-07-29T14:12:35;844.80;1561.60
55026;DHT22;40925;45.666;18.994;2023-07-29T14:15:00;845.10;1484.80
55026;DHT22;40925;45.666;18.994;2023-07-29T14:17:26;845.10;1510.40
55026;DHT22;40925;45.666;18.994;2023-07-29T14:19:52;844.80;1510.40
55026;DHT22;40925;45.666;18.994;2023-07-29T14:22:18;844.80;1510.40
55026;DHT22;40925;45.666;18.994;2023-07-29T14:24:43;845.20;1536.00
55026;DHT22;40925;45.666;18.994;2023-07-29T14:27:09;845.50;1459.20
55026;DHT22;40925;45.666;18.994;2023-07-29T14:29:35;845.20;1484.80
55026;DHT22;40925;45.666;18.994;2023-07-29T14:32:01;844.90;1510.40
55026;DHT22;40925;45.666;18.994;2023-07-29T14:34:29;820.10;1484.80
55026;DHT22;40925;45.666;18.994;2023-07-29T14:36:58;819.60;1536.00
55026;DHT22;40925;45.666;18.994;2023-07-29T14:39:26;819.90;1536.00
55026;DHT22;40925;45.666;18.994;2023-07-29T14:41:52;820.10;1536.00
55026;DHT22;40925;45.666;18.994;2023-07-29T14:44:18;820.00;1536.00
55026;DHT22;40925;45.666;18.994;2023-07-29T14:46:43;820.00;1510.40
55026;DHT22;40925;45.666;18.994;2023-07-29T14:49:09;819.70;1536.00
55026;DHT22;40925;45.666;18.994;2023-07-29T14:51:35;819.70;1510.40
55026;DHT22;40925;45.666;18.994;2023-07-29T14:54:01;844.80;1561.60
55026;DHT22;40925;45.666;18.994;2023-07-29T14:56:26;819.60;1536.00
55026;DHT22;40925;45.666;18.994;2023-07-29T14:58:52;819.80;1536.00
55026;DHT22;40925;45.666;18.994;2023-07-29T15:01:18;819.70;1536.00
55026;DHT22;40925;45.666;18.994;2023-07-29T15:03:44;819.60;1536.00
55026;DHT22;40925;45.666;18.994;2023-07-29T15:06:10;819.40;1561.60
55026;DHT22;40925;45.666;18.994;2023-07-29T15:08:35;819.40;1536.00
55026;DHT22;40925;45.666;18.994;2023-07-29T15:11:02;819.40;1561.60
55026;DHT22;40925;45.666;18.994;2023-07-29T15:13:27;819.50;1561.60
55026;DHT22;40925;45.666;18.994;2023-07-29T15:15:53;819.30;1561.60
55026;DHT22;40925;45.666;18.994;2023-07-29T15:18:20;819.60;1561.60
55026;DHT22;40925;45.666;18.994;2023-07-29T15:20:46;819.20;1587.20
55026;DHT22;40925;45.666;18.994;2023-07-29T15:23:12;794.40;1587.20
55026;DHT22;40925;45.666;18.994;2023-07-29T15:25:37;819.20;1612.80
55026;DHT22;40925;45.666;18.994;2023-07-29T15:28:07;819.20;1561.60
55026;DHT22;40925;45.666;18.994;2023-07-29T15:30:35;819.30;1561.60
55026;DHT22;40925;45.666;18.994;2023-07-29T15:33:02;819.50;1561.60
55026;DHT22;40925;45.666;18.994;2023-07-29T15:35:27;819.40;1561.60
55026;DHT22;40925;45.666;18.994;2023-07-29T15:37:53;819.40;1587.20
55026;DHT22;40925;45.666;18.994;2023-07-29T15:40:19;819.50;1561.60
55026;DHT22;40925;45.666;18.994;2023-07-29T15:42:44;819.50;1561.60
55026;DHT22;40925;45.666;18.994;2023-07-29T15:45:10;819.40;1561.60
55026;DHT22;40925;45.666;18.994;2023-07-29T15:47:36;819.20;1561.60
55026;DHT22;40925;45.666;18.994;2023-07-29T15:50:02;819.20;1587.20
55026;DHT22;40925;45.666;18.994;2023-07-29T15:52:27;819.30;1587.20
55026;DHT22;40925;45.666;18.994;2023-07-29T15:54:54;819.20;1587.20
55026;DHT22;40925;45.666;18.994;2023-07-29T15:57:20;819.40;1587.20
55026;DHT22;40925;45.666;18.994;2023-07-29T15:59:46;819.20;1587.20
55026;DHT22;40925;45.666;18.994;2023-07-29T16:02:12;794.40;1587.20
55026;DHT22;40925;45.666;18.994;2023-07-29T16:04:38;794.30;1612.80
55026;DHT22;40925;45.666;18.994;2023-07-29T16:07:04;794.30;1638.40
55026;DHT22;40925;45.666;18.994;2023-07-29T16:09:30;794.40;1638.40
55026;DHT22;40925;45.666;18.994;2023-07-29T16:11:55;794.40;1638.40
55026;DHT22;40925;45.666;18.994;2023-07-29T16:14:21;794.30;1638.40
55026;DHT22;40925;45.666;18.994;2023-07-29T16:16:49;794.10;1638.40
55026;DHT22;40925;45.666;18.994;2023-07-29T16:19:23;794.10;1638.40
55026;DHT22;40925;45.666;18.994;2023-07-29T16:21:49;794.20;1638.40
55026;DHT22;40925;45.666;18.994;2023-07-29T16:24:20;794.20;1638.40
55026;DHT22;40925;45.666;18.994;2023-07-29T16:26:46;794.30;1638.40
55026;DHT22;40925;45.666;18.994;2023-07-29T16:29:12;794.10;1638.40
55026;DHT22;40925;45.666;18.994;2023-07-29T16:31:37;794.00;1689.60
55026;DHT22;40925;45.666;18.994;2023-07-29T16:34:04;793.90;1689.60
55026;DHT22;40925;45.666;18.994;2023-07-29T16:36:29;793.90;1689.60
55026;DHT22;40925;45.666;18.994;2023-07-29T16:38:58;793.90;1689.60
55026;DHT22;40925;45.666;18.994;2023-07-29T16:41:24;793.80;1689.60
55026;DHT22;40925;45.666;18.994;2023-07-29T16:43:50;793.70;1689.60
55026;DHT22;40925;45.666;18.994;2023-07-29T16:46:16;793.60;1689.60
55026;DHT22;40925;45.666;18.994;2023-07-29T16:48:42;793.80;1689.60
55026;DHT22;40925;45.666;18.994;2023-07-29T16:51:07;768.90;1689.60
55026;DHT22;40925;45.666;18.994;2023-07-29T16:53:35;793.60;1715.20
55026;DHT22;40925;45.666;18.994;2023-07-29T16:56:01;793.60;1715.20
55026;DHT22;40925;45.666;18.994;2023-07-29T16:58:27;793.60;1715.20
55026;DHT22;40925;45.666;18.994;2023-07-29T17:00:53;768.90;1689.60
55026;DHT22;40925;45.666;18.994;2023-07-29T17:03:19;768.90;1689.60
55026;DHT22;40925;45.666;18.994;2023-07-29T17:05:45;793.60;1715.20
55026;DHT22;40925;45.666;18.994;2023-07-29T17:08:11;793.60;1715.20
55026;DHT22;40925;45.666;18.994;2023-07-29T17:10:37;768.90;1715.20
55026;DHT22;40925;45.666;18.994;2023-07-29T17:13:03;768.90;1740.80
55026;DHT22;40925;45.666;18.994;2023-07-29T17:15:28;793.60;1766.40
55026;DHT22;40925;45.666;18.994;2023-07-29T17:17:54;768.90;1740.80
55026;DHT22;40925;45.666;18.994;2023-07-29T17:20:21;768.80;1740.80
55026;DHT22;40925;45.666;18.994;2023-07-29T17:25:13;768.70;1792.00
55026;DHT22;40925;45.666;18.994;2023-07-29T17:27:39;768.50;1817.60
55026;DHT22;40925;45.666;18.994;2023-07-29T17:30:05;768.30;1792.00
55026;DHT22;40925;45.666;18.994;2023-07-29T17:32:31;768.50;1792.00
55026;DHT22;40925;45.666;18.994;2023-07-29T17:34:56;768.50;1792.00
55026;DHT22;40925;45.666;18.994;2023-07-29T17:37:22;768.30;1792.00
55026;DHT22;40925;45.666;18.994;2023-07-29T17:39:48;768.30;1817.60
55026;DHT22;40925;45.666;18.994;2023-07-29T17:42:13;768.30;1817.60
55026;DHT22;40925;45.666;18.994;2023-07-29T17:44:39;768.30;1817.60
55026;DHT22;40925;45.666;18.994;2023-07-29T17:47:08;768.30;1843.20
55026;DHT22;40925;45.666;18.994;2023-07-29T17:49:33;768.00;1868.80
55026;DHT22;40925;45.666;18.994;2023-07-29T17:51:59;743.20;1894.40
55026;DHT22;40925;45.666;18.994;2023-07-29T17:54:25;743.20;1894.40
55026;DHT22;40925;45.666;18.994;2023-07-29T17:56:51;743.00;1920.00
55026;DHT22;40925;45.666;18.994;2023-07-29T17:59:16;743.00;1920.00
55026;DHT22;40925;45.666;18.994;2023-07-29T18:01:42;743.10;1920.00
55026;DHT22;40925;45.666;18.994;2023-07-29T18:04:08;743.00;1920.00
55026;DHT22;40925;45.666;18.994;2023-07-29T18:06:34;743.00;1945.60
55026;DHT22;40925;45.666;18.994;2023-07-29T18:09:00;743.00;1971.20
55026;DHT22;40925;45.666;18.994;2023-07-29T18:11:25;742.90;1971.20
55026;DHT22;40925;45.666;18.994;2023-07-29T18:13:51;742.80;1996.80
55026;DHT22;40925;45.666;18.994;2023-07-29T18:16:17;742.80;2022.40
55026;DHT22;40925;45.666;18.994;2023-07-29T18:18:46;742.70;2022.40
55026;DHT22;40925;45.666;18.994;2023-07-29T18:21:15;742.70;2048.00
55026;DHT22;40925;45.666;18.994;2023-07-29T18:23:40;742.70;2073.60
55026;DHT22;40925;45.666;18.994;2023-07-29T18:26:06;742.40;2099.20
55026;DHT22;40925;45.666;18.994;2023-07-29T18:28:32;742.40;2099.20
55026;DHT22;40925;45.666;18.994;2023-07-29T18:30:58;742.40;2252.80
55026;DHT22;40925;45.666;18.994;2023-07-29T18:33:23;717.70;2073.60
55026;DHT22;40925;45.666;18.994;2023-07-29T18:35:49;742.40;2124.80
55026;DHT22;40925;45.666;18.994;2023-07-29T18:38:15;717.70;2099.20
55026;DHT22;40925;45.666;18.994;2023-07-29T18:40:40;717.70;2124.80
55026;DHT22;40925;45.666;18.994;2023-07-29T18:43:07;717.70;2124.80
55026;DHT22;40925;45.666;18.994;2023-07-29T18:45:35;717.70;2150.40
55026;DHT22;40925;45.666;18.994;2023-07-29T18:48:00;717.70;2150.40
55026;DHT22;40925;45.666;18.994;2023-07-29T18:50:26;717.70;2176.00
55026;DHT22;40925;45.666;18.994;2023-07-29T18:52:52;717.40;2329.60
55026;DHT22;40925;45.666;18.994;2023-07-29T18:57:46;716.80;2432.00
55026;DHT22;40925;45.666;18.994;2023-07-29T19:17:19;691.50;2432.00
55026;DHT22;40925;45.666;18.994;2023-07-29T19:19:45;691.20;2432.00
55026;DHT22;40925;45.666;18.994;2023-07-29T19:53:54;640.90;2432.00
55026;DHT22;40925;45.666;18.994;2023-07-29T19:56:20;640.60;2432.00
55026;DHT22;40925;45.666;18.994;2023-07-29T19:58:45;640.30;2432.00
55026;DHT22;40925;45.666;18.994;2023-07-29T20:01:11;640.40;2432.00
55026;DHT22;40925;45.666;18.994;2023-07-29T20:03:37;640.40;2432.00
55026;DHT22;40925;45.666;18.994;2023-07-29T20:06:04;640.50;2432.00
55026;DHT22;40925;45.666;18.994;2023-07-29T20:08:31;640.50;2432.00
55026;DHT22;40925;45.666;18.994;2023-07-29T20:10:57;640.50;2432.00
55026;DHT22;40925;45.666;18.994;2023-07-29T20:13:23;640.40;2432.00
55026;DHT22;40925;45.666;18.994;2023-07-29T20:15:55;640.50;2432.00
55026;DHT22;40925;45.666;18.994;2023-07-29T20:18:21;640.50;2432.00
55026;DHT22;40925;45.666;18.994;2023-07-29T20:20:48;640.50;2432.00
55026;DHT22;40925;45.666;18.994;2023-07-29T20:23:14;640.40;2432.00
55026;DHT22;40925;45.666;18.994;2023-07-29T20:25:40;640.30;2432.00
55026;DHT22;40925;45.666;18.994;2023-07-29T20:28:06;640.50;2432.00
55026;DHT22;40925;45.666;18.994;2023-07-29T20:30:32;640.70;2432.00
55026;DHT22;40925;45.666;18.994;2023-07-29T20:32:58;640.70;2432.00
55026;DHT22;40925;45.666;18.994;2023-07-29T20:35:25;640.70;2432.00